createdAt,value
2019-05-17T00:00:57.379Z,11.31
2019-05-17T00:05:59.597Z,11.31
2019-05-17T00:11:01.516Z,11.22
2019-05-17T00:16:03.563Z,11.13
2019-05-17T00:21:07.534Z,11.10
2019-05-17T00:26:09.208Z,11.15
2019-05-17T00:31:11.079Z,11.18
2019-05-17T00:36:13.106Z,11.07
2019-05-17T00:41:17.484Z,11.08
2019-05-17T00:46:18.887Z,11.01
2019-05-17T00:51:20.744Z,11.10
2019-05-17T00:56:22.635Z,11.06
2019-05-17T01:01:27.021Z,11.07
2019-05-17T01:06:29.129Z,11.08
2019-05-17T01:11:31.041Z,11.02
2019-05-17T01:16:33.028Z,11.00
2019-05-17T01:21:36.733Z,10.94
2019-05-17T01:26:38.815Z,10.91
2019-05-17T01:31:40.730Z,10.94
2019-05-17T01:36:42.759Z,11.02
2019-05-17T01:41:46.677Z,10.96
2019-05-17T01:46:48.549Z,10.95
2019-05-17T01:51:50.577Z,10.95
2019-05-17T01:56:52.549Z,10.76
2019-05-17T02:01:56.606Z,10.78
2019-05-17T02:07:52.395Z,10.81
2019-05-17T02:12:56.895Z,10.81
2019-05-17T02:17:58.272Z,10.91
2019-05-17T02:23:00.316Z,10.85
2019-05-17T02:28:02.346Z,10.97
2019-05-17T02:33:04.810Z,10.92
2019-05-17T02:38:06.909Z,10.84
2019-05-17T02:43:08.838Z,10.85
2019-05-17T02:48:13.411Z,10.79
2019-05-17T02:53:14.611Z,10.82
2019-05-17T02:58:16.535Z,10.81
2019-05-17T03:03:18.492Z,10.76
2019-05-17T03:08:23.534Z,10.81
2019-05-17T03:13:24.392Z,10.78
2019-05-17T03:18:26.312Z,10.71
2019-05-17T03:23:28.225Z,10.71
2019-05-17T03:28:33.401Z,10.69
2019-05-17T03:33:36.329Z,10.77
2019-05-17T03:38:38.513Z,10.82
2019-05-17T03:43:44.295Z,10.96
2019-05-17T03:48:45.704Z,10.87
2019-05-17T03:53:47.605Z,10.72
2019-05-17T03:58:52.844Z,10.68
2019-05-17T04:03:53.481Z,10.67
2019-05-17T04:08:55.458Z,10.66
2019-05-17T04:13:57.350Z,10.81
2019-05-17T04:18:59.207Z,10.80
2019-05-17T04:24:03.203Z,10.76
2019-05-17T04:29:05.824Z,10.85
2019-05-17T04:34:07.699Z,10.80
2019-05-17T04:39:09.586Z,10.81
2019-05-17T04:44:12.863Z,10.86
2019-05-17T04:49:14.947Z,10.87
2019-05-17T04:54:16.886Z,10.96
2019-05-17T04:59:18.824Z,11.06
2019-05-17T05:04:22.573Z,11.11
2019-05-17T05:09:24.593Z,11.13
2019-05-17T05:14:26.542Z,11.19
2019-05-17T05:19:28.433Z,11.24
2019-05-17T05:24:31.525Z,11.35
2019-05-17T05:29:33.815Z,11.47
2019-05-17T05:34:35.792Z,11.51
2019-05-17T05:39:37.714Z,11.65
2019-05-17T05:44:41.557Z,11.76
2019-05-17T05:49:43.529Z,11.81
2019-05-17T05:54:45.442Z,11.96
2019-05-17T05:59:47.291Z,12.13
2019-05-17T06:04:51.850Z,12.59
2019-05-17T06:09:54.791Z,12.82
2019-05-17T06:14:56.798Z,13.14
2019-05-17T06:19:58.697Z,13.53
2019-05-17T06:25:03.869Z,13.66
2019-05-17T06:30:05.537Z,13.73
2019-05-17T06:35:09.200Z,13.89
2019-05-17T06:40:12.993Z,14.19
2019-05-17T06:45:15.697Z,14.59
2019-05-17T06:50:17.851Z,14.40
2019-05-17T06:55:19.847Z,14.51
2019-05-17T07:00:23.919Z,14.45
2019-05-17T07:05:33.934Z,14.40
2019-05-17T07:10:35.870Z,14.42
2019-05-17T07:15:44.745Z,14.50
2019-05-17T07:20:42.038Z,14.47
2019-05-17T07:25:44.017Z,14.49
2019-05-17T07:30:45.998Z,14.51
2019-05-17T07:35:49.980Z,14.67
2019-05-17T07:40:52.032Z,14.76
2019-05-17T07:45:53.941Z,15.06
2019-05-17T07:50:56.001Z,15.25
2019-05-17T07:55:59.702Z,15.23
2019-05-17T08:01:02.437Z,15.34
2019-05-17T08:06:04.554Z,15.47
2019-05-17T08:11:06.501Z,15.58
2019-05-17T08:16:10.354Z,15.60
2019-05-17T08:21:12.213Z,15.57
2019-05-17T08:26:14.273Z,15.71
2019-05-17T08:31:20.026Z,15.74
2019-05-17T08:36:21.609Z,15.61
2019-05-17T08:41:23.594Z,15.57
2019-05-17T08:46:25.470Z,15.50
2019-05-17T08:51:27.395Z,15.53
2019-05-17T08:56:30.953Z,15.67
2019-05-17T09:01:33.112Z,15.55
2019-05-17T09:06:34.974Z,15.42
2019-05-17T09:11:36.835Z,15.30
2019-05-17T09:16:40.118Z,15.62
2019-05-17T09:21:42.276Z,15.87
2019-05-17T09:26:44.305Z,16.29
2019-05-17T09:31:47.262Z,16.27
2019-05-17T09:36:49.731Z,16.25
2019-05-17T09:41:51.871Z,16.17
2019-05-17T09:46:53.797Z,15.96
2019-05-17T09:51:55.643Z,16.02
2019-05-17T09:56:57.601Z,15.96
2019-05-17T10:02:00.094Z,15.83
2019-05-17T10:07:02.154Z,15.84
2019-05-17T10:12:04.070Z,15.86
2019-05-17T10:17:05.960Z,15.83
2019-05-17T10:22:10.190Z,15.62
2019-05-17T10:27:14.478Z,15.49
2019-05-17T10:32:15.560Z,15.67
2019-05-17T10:37:20.344Z,15.88
2019-05-17T10:42:21.612Z,15.96
2019-05-17T10:47:23.772Z,16.22
2019-05-17T10:52:25.661Z,16.16
2019-05-17T10:57:30.087Z,16.23
2019-05-17T11:02:31.479Z,16.37
2019-05-17T11:07:33.322Z,16.43
2019-05-17T11:12:35.250Z,16.46
2019-05-17T11:17:37.151Z,16.78
2019-05-17T11:22:39.072Z,16.80
2019-05-17T11:27:41.086Z,16.85
2019-05-17T11:32:44.093Z,17.34
2019-05-17T11:37:46.205Z,17.21
2019-05-17T11:42:48.153Z,16.97
2019-05-17T11:47:50.146Z,17.20
2019-05-17T11:52:52.271Z,17.64
2019-05-17T11:57:56.490Z,17.28
2019-05-17T12:03:00.071Z,17.32
2019-05-17T12:08:02.098Z,17.22
2019-05-17T12:13:04.340Z,17.19
2019-05-17T12:18:06.972Z,17.26
2019-05-17T12:23:13.101Z,16.96
2019-05-17T12:28:15.357Z,16.97
2019-05-17T12:33:17.891Z,17.09
2019-05-17T12:38:22.102Z,17.07
2019-05-17T12:43:24.514Z,17.03
2019-05-17T12:48:26.677Z,17.16
2019-05-17T12:53:28.884Z,17.57
2019-05-17T12:58:31.243Z,17.38
2019-05-17T13:03:33.641Z,17.14
2019-05-17T13:08:38.609Z,17.05
2019-05-17T13:13:42.285Z,17.07
2019-05-17T13:18:44.430Z,16.75
2019-05-17T13:23:46.680Z,16.65
2019-05-17T13:28:49.238Z,16.64
2019-05-17T13:33:55.120Z,16.87
2019-05-17T13:38:57.819Z,17.17
2019-05-17T13:44:01.440Z,17.55
2019-05-17T13:54:07.185Z,17.09
2019-05-17T13:59:09.564Z,16.78
2019-05-17T14:04:11.879Z,16.54
2019-05-17T14:09:14.268Z,16.37
2019-05-17T14:14:16.559Z,15.98
2019-05-17T14:19:18.757Z,15.72
2019-05-17T14:24:21.004Z,15.56
2019-05-17T14:29:23.552Z,15.45
2019-05-17T14:34:25.999Z,15.29
2019-05-17T14:39:28.306Z,15.24
2019-05-17T14:44:30.686Z,15.12
2019-05-17T14:49:32.884Z,15.19
2019-05-17T14:54:35.131Z,15.30
2019-05-17T14:59:37.523Z,15.23
2019-05-17T15:04:39.869Z,15.41
2019-05-17T15:09:42.404Z,15.42
2019-05-17T15:14:44.547Z,15.52
2019-05-17T15:19:46.871Z,15.47
2019-05-17T15:24:49.208Z,15.37
2019-05-17T15:29:51.360Z,15.23
2019-05-17T15:34:53.748Z,15.12
2019-05-17T15:39:56.091Z,15.05
2019-05-17T15:44:58.380Z,14.94
2019-05-17T15:50:01.753Z,15.05
2019-05-17T15:55:05.658Z,14.79
2019-05-17T16:00:10.464Z,14.70
2019-05-17T16:05:13.236Z,14.68
2019-05-17T16:10:16.203Z,14.51
2019-05-17T16:15:18.335Z,14.41
2019-05-17T16:20:20.755Z,14.38
2019-05-17T16:25:23.287Z,14.50
2019-05-17T16:30:25.786Z,14.50
2019-05-17T16:35:28.224Z,14.46
2019-05-17T16:40:30.688Z,14.07
2019-05-17T16:45:33.442Z,14.02
2019-05-17T16:50:35.821Z,13.83
2019-05-17T16:55:38.341Z,13.80
2019-05-17T17:00:42.454Z,13.94
2019-05-17T17:05:44.922Z,14.03
2019-05-17T17:10:47.432Z,14.17
2019-05-17T17:15:49.872Z,14.41
2019-05-17T17:20:52.219Z,14.23
2019-05-17T17:25:55.531Z,14.31
2019-05-17T17:31:00.087Z,14.41
2019-05-17T17:36:02.393Z,14.39
2019-05-17T17:41:04.757Z,13.93
2019-05-17T17:46:07.072Z,13.68
2019-05-17T17:51:09.573Z,13.42
2019-05-17T17:56:13.672Z,13.58
2019-05-17T18:01:16.543Z,13.56
2019-05-17T18:06:18.714Z,13.49
2019-05-17T18:11:21.044Z,13.53
2019-05-17T18:16:23.358Z,13.44
2019-05-17T18:21:25.957Z,13.58
2019-05-17T18:26:27.978Z,13.79
2019-05-17T18:31:30.245Z,13.90
2019-05-17T18:36:32.727Z,13.78
2019-05-17T18:41:35.108Z,13.75
2019-05-17T18:46:37.669Z,13.70
2019-05-17T18:51:40.058Z,13.67
2019-05-17T18:56:43.523Z,13.61
2019-05-17T19:01:45.691Z,13.68
2019-05-17T19:06:50.679Z,13.54
2019-05-17T19:11:53.204Z,13.48
2019-05-17T19:16:55.839Z,13.14
2019-05-17T19:21:59.259Z,13.01
2019-05-17T19:27:01.862Z,12.98
2019-05-17T19:32:04.184Z,13.03
2019-05-17T19:37:06.737Z,13.01
2019-05-17T19:42:12.676Z,13.01
2019-05-17T19:47:15.337Z,13.16
2019-05-17T19:52:17.437Z,13.14
2019-05-17T19:57:19.996Z,13.00
2019-05-17T20:02:22.342Z,12.91
2019-05-17T20:07:24.667Z,12.97
2019-05-17T20:12:27.064Z,12.99
2019-05-17T20:17:29.331Z,12.88
2019-05-17T20:22:31.669Z,12.79
2019-05-17T20:27:34.180Z,12.69
2019-05-17T20:32:36.622Z,12.71
2019-05-17T20:37:39.285Z,12.61
2019-05-17T20:42:41.489Z,12.20
2019-05-17T20:47:43.739Z,11.91
2019-05-17T20:52:46.634Z,11.80
2019-05-17T20:57:49.178Z,11.75
2019-05-17T21:02:51.266Z,11.86
2019-05-17T21:07:54.555Z,11.94
2019-05-17T21:12:56.861Z,11.98
2019-05-17T21:17:59.436Z,12.04
2019-05-17T21:23:01.403Z,11.93
2019-05-17T21:28:03.877Z,11.82
2019-05-17T21:33:06.708Z,11.77
2019-05-17T21:38:09.222Z,11.68
2019-05-17T21:43:11.442Z,11.44
2019-05-17T21:48:13.724Z,11.23
2019-05-17T21:53:15.817Z,10.90
2019-05-17T21:58:20.439Z,10.79
2019-05-17T22:03:22.087Z,10.87
2019-05-17T22:08:24.392Z,11.02
2019-05-17T22:13:26.682Z,10.91
2019-05-17T22:18:28.958Z,10.98
2019-05-17T22:23:32.145Z,10.94
2019-05-17T22:28:34.465Z,10.72
2019-05-17T22:33:36.717Z,10.68
2019-05-17T22:38:38.978Z,10.85
2019-05-17T22:43:42.207Z,10.90
2019-05-17T22:48:44.401Z,10.94
2019-05-17T22:53:46.613Z,10.73
2019-05-17T22:58:48.927Z,10.45
2019-05-17T23:03:51.291Z,10.55
2019-05-17T23:08:53.283Z,10.73
2019-05-17T23:13:55.480Z,10.75
2019-05-17T23:19:06.022Z,10.78
2019-05-17T23:24:08.198Z,10.76
2019-05-17T23:29:10.342Z,10.87
2019-05-17T23:34:12.398Z,11.05
2019-05-17T23:39:14.693Z,10.82
2019-05-17T23:44:16.964Z,10.77
2019-05-17T23:49:19.094Z,10.73
2019-05-17T23:54:21.189Z,10.83
2019-05-17T23:59:23.683Z,10.59
